createdAt,value
2023-05-11T00:03:35.177Z,100.00
2023-05-11T00:07:37.473Z,100.00
2023-05-11T00:11:39.478Z,100.00
2023-05-11T00:15:41.782Z,100.00
2023-05-11T00:19:43.890Z,100.00
2023-05-11T00:23:45.984Z,100.00
2023-05-11T00:27:48.241Z,100.00
2023-05-11T00:31:50.181Z,100.00
2023-05-11T00:35:52.399Z,100.00
2023-05-11T00:39:54.426Z,100.00
2023-05-11T00:43:56.524Z,100.00
2023-05-11T00:47:58.724Z,94.44
2023-05-11T00:52:03.072Z,99.00
2023-05-11T00:56:05.586Z,98.71
2023-05-11T01:00:08.947Z,96.21
2023-05-11T01:04:10.988Z,92.55
2023-05-11T01:08:18.884Z,87.17
2023-05-11T01:12:35.615Z,87.82
2023-05-11T01:16:42.626Z,88.24
2023-05-11T01:20:48.487Z,83.14
2023-05-11T01:25:18.747Z,87.47
2023-05-11T01:29:43.084Z,83.11
2023-05-11T01:33:54.341Z,85.23
2023-05-11T01:37:59.702Z,82.32
2023-05-11T01:42:08.486Z,89.53
2023-05-11T01:46:10.848Z,87.76
2023-05-11T01:50:15.756Z,89.88
2023-05-11T01:54:20.700Z,89.69
2023-05-11T01:58:24.219Z,92.83
2023-05-11T02:02:27.417Z,88.67
2023-05-11T02:06:32.553Z,92.41
2023-05-11T02:10:36.958Z,100.00
2023-05-11T02:14:40.404Z,100.00
2023-05-11T02:18:43.110Z,98.70
2023-05-11T02:22:45.961Z,96.93
2023-05-11T02:26:47.984Z,98.29
2023-05-11T02:30:54.176Z,100.00
2023-05-11T02:35:10.109Z,100.00
2023-05-11T02:39:13.261Z,100.00
2023-05-11T02:43:21.963Z,100.00
2023-05-11T02:47:33.646Z,100.00
2023-05-11T02:51:38.739Z,100.00
2023-05-11T02:55:42.352Z,100.00
2023-05-11T02:59:46.329Z,100.00
2023-05-11T03:03:48.950Z,100.00
2023-05-11T03:07:57.525Z,100.00
2023-05-11T03:12:00.876Z,100.00
2023-05-11T03:16:05.411Z,100.00
2023-05-11T03:20:10.079Z,100.00
2023-05-11T03:24:12.504Z,100.00
2023-05-11T03:28:15.900Z,100.00
2023-05-11T03:32:26.379Z,100.00
2023-05-11T03:36:32.205Z,100.00
2023-05-11T03:40:34.675Z,100.00
2023-05-11T03:44:37.745Z,100.00
2023-05-11T03:48:41.713Z,100.00
2023-05-11T03:52:44.094Z,100.00
2023-05-11T03:56:46.188Z,100.00
2023-05-11T04:00:48.659Z,100.00
2023-05-11T04:04:52.405Z,100.00
2023-05-11T04:08:54.585Z,100.00
2023-05-11T04:12:56.611Z,100.00
2023-05-11T04:16:58.193Z,100.00
2023-05-11T04:21:02.373Z,100.00
2023-05-11T04:25:04.931Z,100.00
2023-05-11T04:29:07.053Z,100.00
2023-05-11T04:33:09.074Z,100.00
2023-05-11T04:37:11.228Z,100.00
2023-05-11T04:41:14.949Z,100.00
2023-05-11T04:45:17.700Z,100.00
2023-05-11T04:49:19.633Z,100.00
2023-05-11T04:53:22.121Z,100.00
2023-05-11T04:57:24.206Z,100.00
2023-05-11T05:01:26.326Z,95.73
2023-05-11T05:05:28.577Z,100.00
2023-05-11T05:09:30.632Z,90.13
2023-05-11T05:13:32.736Z,96.37
2023-05-11T05:17:34.965Z,100.00
2023-05-11T05:21:37.768Z,83.69
2023-05-11T05:25:39.946Z,89.62
2023-05-11T05:29:42.714Z,81.52
2023-05-11T05:33:44.943Z,79.42
2023-05-11T05:37:48.126Z,67.38
2023-05-11T05:41:50.602Z,67.64
2023-05-11T05:45:53.186Z,88.12
2023-05-11T05:49:55.429Z,67.27
2023-05-11T05:53:57.575Z,64.91
2023-05-11T05:57:59.711Z,62.73
2023-05-11T06:02:02.131Z,60.21
2023-05-11T06:06:06.815Z,59.02
2023-05-11T06:10:08.736Z,58.54
2023-05-11T06:14:10.799Z,56.77
2023-05-11T06:18:13.442Z,64.32
2023-05-11T06:22:17.268Z,57.20
2023-05-11T06:26:19.536Z,53.81
2023-05-11T06:30:22.392Z,60.61
2023-05-11T06:34:27.185Z,52.66
2023-05-11T06:38:31.119Z,55.31
2023-05-11T06:42:33.260Z,54.39
2023-05-11T06:46:44.777Z,49.42
2023-05-11T06:50:46.759Z,50.25
2023-05-11T06:54:48.817Z,50.72
2023-05-11T06:58:50.799Z,48.35
2023-05-11T07:02:53.099Z,51.78
2023-05-11T07:06:55.529Z,48.46
2023-05-11T07:10:57.708Z,49.47
2023-05-11T07:14:59.800Z,42.79
2023-05-11T07:19:01.903Z,41.62
2023-05-11T07:23:03.967Z,43.01
2023-05-11T07:27:06.076Z,39.27
2023-05-11T07:31:08.150Z,40.62
2023-05-11T07:35:10.801Z,45.70
2023-05-11T07:39:12.914Z,37.93
2023-05-11T07:43:14.998Z,39.03
2023-05-11T07:47:19.009Z,37.97
2023-05-11T07:51:21.059Z,39.43
2023-05-11T07:55:25.980Z,39.74
2023-05-11T07:59:28.018Z,37.83
2023-05-11T08:03:30.098Z,36.10
2023-05-11T08:07:32.201Z,36.19
2023-05-11T08:11:34.296Z,35.07
2023-05-11T08:15:36.660Z,36.52
2023-05-11T08:19:38.630Z,35.59
2023-05-11T08:23:40.899Z,35.31
2023-05-11T08:27:43.456Z,37.91
2023-05-11T08:31:45.620Z,34.73
2023-05-11T08:35:47.692Z,35.35
2023-05-11T08:39:49.770Z,34.83
2023-05-11T08:43:52.509Z,34.98
2023-05-11T08:47:54.736Z,36.13
2023-05-11T08:51:56.879Z,34.86
2023-05-11T08:56:01.356Z,34.65
2023-05-11T09:00:04.550Z,34.72
2023-05-11T09:04:07.150Z,37.45
2023-05-11T09:08:12.476Z,37.59
2023-05-11T09:12:15.452Z,34.58
2023-05-11T09:16:35.612Z,34.69
2023-05-11T09:20:43.533Z,38.59
2023-05-11T09:24:45.656Z,37.49
2023-05-11T09:29:02.365Z,39.51
2023-05-11T09:33:05.505Z,35.82
2023-05-11T09:37:16.960Z,37.51
2023-05-11T09:41:20.330Z,35.93
2023-05-11T09:45:56.421Z,37.00
2023-05-11T09:49:58.501Z,34.38
2023-05-11T09:54:01.932Z,38.64
2023-05-11T09:58:04.650Z,36.36
2023-05-11T10:02:26.478Z,35.42
2023-05-11T10:06:47.002Z,33.75
2023-05-11T10:10:48.747Z,33.70
2023-05-11T10:14:53.723Z,32.79
2023-05-11T10:18:57.269Z,36.25
2023-05-11T10:22:59.270Z,34.18
2023-05-11T10:27:01.721Z,33.71
2023-05-11T10:31:04.928Z,35.73
2023-05-11T10:35:07.612Z,36.09
2023-05-11T10:39:09.595Z,33.43
2023-05-11T10:43:36.668Z,36.26
2023-05-11T10:48:15.694Z,38.21
2023-05-11T10:52:48.500Z,39.23
2023-05-11T10:57:13.255Z,35.05
2023-05-11T11:01:36.593Z,37.64
2023-05-11T11:05:39.299Z,36.64
2023-05-11T11:09:53.490Z,37.59
2023-05-11T11:14:02.411Z,37.63
2023-05-11T11:18:30.281Z,32.49
2023-05-11T11:22:35.571Z,33.21
2023-05-11T11:26:50.797Z,34.58
2023-05-11T11:31:30.715Z,35.42
2023-05-11T11:35:42.145Z,34.35
2023-05-11T11:39:44.842Z,32.92
2023-05-11T11:43:47.264Z,32.91
2023-05-11T11:48:06.786Z,33.71
2023-05-11T11:52:13.686Z,34.29
2023-05-11T11:56:15.601Z,31.90
2023-05-11T12:00:21.356Z,34.98
2023-05-11T12:04:35.108Z,35.12
2023-05-11T12:08:39.219Z,36.61
2023-05-11T12:12:45.307Z,31.44
2023-05-11T12:17:04.466Z,31.79
2023-05-11T12:21:06.456Z,32.30
2023-05-11T12:25:11.397Z,32.74
2023-05-11T12:29:15.340Z,33.60
2023-05-11T12:33:17.400Z,36.22
2023-05-11T12:37:19.485Z,35.51
2023-05-11T12:41:23.088Z,33.35
2023-05-11T12:45:26.382Z,35.68
2023-05-11T12:49:29.078Z,34.62
2023-05-11T12:53:36.090Z,36.22
2023-05-11T12:57:39.964Z,33.25
2023-05-11T13:01:42.191Z,30.69
2023-05-11T13:05:44.220Z,33.26
2023-05-11T13:09:56.527Z,33.44
2023-05-11T13:13:58.747Z,33.57
2023-05-11T13:18:02.770Z,31.91
2023-05-11T13:22:06.506Z,34.43
2023-05-11T13:26:08.699Z,35.94
2023-05-11T13:30:11.500Z,35.64
2023-05-11T13:34:13.768Z,33.63
2023-05-11T13:38:16.286Z,34.91
2023-05-11T13:42:18.373Z,31.27
2023-05-11T13:46:20.804Z,34.97
2023-05-11T13:50:24.028Z,33.79
2023-05-11T13:54:26.148Z,35.37
2023-05-11T13:58:27.781Z,34.21
2023-05-11T14:02:29.977Z,31.87
2023-05-11T14:06:34.466Z,35.92
2023-05-11T14:10:36.466Z,35.65
2023-05-11T14:14:38.512Z,34.50
2023-05-11T14:18:41.029Z,34.31
2023-05-11T14:22:43.136Z,30.60
2023-05-11T14:26:45.240Z,36.20
2023-05-11T14:30:47.204Z,34.72
2023-05-11T14:34:49.331Z,33.82
2023-05-11T14:38:51.371Z,32.63
2023-05-11T14:42:54.285Z,36.10
2023-05-11T14:46:56.265Z,33.74
2023-05-11T14:50:58.932Z,35.24
2023-05-11T14:55:00.924Z,35.69
2023-05-11T14:59:03.046Z,32.72
2023-05-11T15:03:05.091Z,33.83
2023-05-11T15:07:07.179Z,34.74
2023-05-11T15:11:09.166Z,33.47
2023-05-11T15:15:11.196Z,37.18
2023-05-11T15:19:13.531Z,34.87
2023-05-11T15:23:16.947Z,35.76
2023-05-11T15:27:19.332Z,36.32
2023-05-11T15:31:22.314Z,35.55
2023-05-11T15:35:24.316Z,34.52
2023-05-11T15:39:26.448Z,35.09
2023-05-11T15:43:28.518Z,35.10
2023-05-11T15:47:30.685Z,36.36
2023-05-11T15:51:32.719Z,36.28
2023-05-11T15:55:34.838Z,34.09
2023-05-11T15:59:38.001Z,35.47
2023-05-11T16:03:40.084Z,36.86
2023-05-11T16:07:42.202Z,37.85
2023-05-11T16:11:45.538Z,37.83
2023-05-11T16:15:47.652Z,37.09
2023-05-11T16:19:49.726Z,37.64
2023-05-11T16:23:51.821Z,39.78
2023-05-11T16:27:53.926Z,38.83
2023-05-11T16:31:56.455Z,39.09
2023-05-11T16:35:58.757Z,36.70
2023-05-11T16:40:01.967Z,38.26
2023-05-11T16:44:04.220Z,38.46
2023-05-11T16:48:06.895Z,37.41
2023-05-11T16:52:09.002Z,39.52
2023-05-11T16:56:11.808Z,39.19
2023-05-11T17:00:14.554Z,39.86
2023-05-11T17:04:16.860Z,39.08
2023-05-11T17:08:19.092Z,39.23
2023-05-11T17:12:21.065Z,38.92
2023-05-11T17:16:23.213Z,40.26
2023-05-11T17:20:25.797Z,39.21
2023-05-11T17:24:28.652Z,38.95
2023-05-11T17:28:30.913Z,39.11
2023-05-11T17:32:33.376Z,39.90
2023-05-11T17:36:36.154Z,38.85
2023-05-11T17:40:38.325Z,41.62
2023-05-11T17:44:40.394Z,41.01
2023-05-11T17:48:42.497Z,41.67
2023-05-11T17:52:44.590Z,41.92
2023-05-11T17:56:46.780Z,44.22
2023-05-11T18:00:49.546Z,42.77
2023-05-11T18:04:52.064Z,44.18
2023-05-11T18:08:54.197Z,45.71
2023-05-11T18:12:56.497Z,48.54
2023-05-11T18:16:58.615Z,49.82
2023-05-11T18:21:07.426Z,50.95
2023-05-11T18:25:09.694Z,53.23
2023-05-11T18:29:11.970Z,56.18
2023-05-11T18:33:14.316Z,62.87
2023-05-11T18:37:16.467Z,67.89
2023-05-11T18:41:18.654Z,68.44
2023-05-11T18:45:20.779Z,77.19
2023-05-11T18:49:23.003Z,79.92
2023-05-11T18:53:25.650Z,90.43
2023-05-11T18:57:28.181Z,89.91
2023-05-11T19:01:43.827Z,98.52
2023-05-11T19:05:49.497Z,100.00
2023-05-11T19:09:51.834Z,100.00
2023-05-11T19:13:53.993Z,100.00
2023-05-11T19:17:56.291Z,100.00
2023-05-11T19:21:59.311Z,100.00
2023-05-11T19:26:01.689Z,100.00
2023-05-11T19:30:04.637Z,100.00
2023-05-11T19:34:06.944Z,100.00
2023-05-11T19:38:09.141Z,100.00
2023-05-11T19:42:11.251Z,100.00
2023-05-11T19:46:13.550Z,100.00
2023-05-11T19:50:15.765Z,100.00
2023-05-11T19:54:18.069Z,100.00
2023-05-11T19:58:20.550Z,100.00
2023-05-11T20:02:22.668Z,100.00
2023-05-11T20:06:25.710Z,100.00
2023-05-11T20:10:27.981Z,100.00
2023-05-11T20:14:30.266Z,100.00
2023-05-11T20:18:33.281Z,100.00
2023-05-11T20:22:36.806Z,100.00
2023-05-11T20:26:38.946Z,100.00
2023-05-11T20:30:41.013Z,100.00
2023-05-11T20:34:43.307Z,100.00
2023-05-11T20:38:45.418Z,100.00
2023-05-11T20:42:47.464Z,100.00
2023-05-11T20:46:49.599Z,100.00
2023-05-11T20:50:52.128Z,100.00
2023-05-11T20:54:54.631Z,100.00
2023-05-11T20:58:56.724Z,100.00
2023-05-11T21:02:58.922Z,100.00
2023-05-11T21:07:01.152Z,100.00
2023-05-11T21:11:03.505Z,100.00
2023-05-11T21:15:07.253Z,100.00
2023-05-11T21:19:09.508Z,100.00
2023-05-11T21:23:11.904Z,100.00
2023-05-11T21:27:15.066Z,100.00
2023-05-11T21:31:17.557Z,100.00
2023-05-11T21:35:19.753Z,100.00
2023-05-11T21:39:21.943Z,100.00
2023-05-11T21:43:24.290Z,100.00
2023-05-11T21:47:26.411Z,100.00
2023-05-11T21:51:28.676Z,100.00
2023-05-11T21:55:31.172Z,100.00
2023-05-11T21:59:33.359Z,100.00
2023-05-11T22:03:35.629Z,100.00
2023-05-11T22:07:37.790Z,100.00
2023-05-11T22:11:40.247Z,100.00
2023-05-11T22:15:42.554Z,100.00
2023-05-11T22:19:44.714Z,100.00
2023-05-11T22:23:46.992Z,100.00
2023-05-11T22:27:49.170Z,100.00
2023-05-11T22:31:51.313Z,100.00
2023-05-11T22:35:53.416Z,100.00
2023-05-11T22:39:55.893Z,100.00
2023-05-11T22:43:58.230Z,100.00
2023-05-11T22:48:00.613Z,100.00
2023-05-11T22:52:02.763Z,100.00
2023-05-11T22:56:06.392Z,100.00
2023-05-11T23:00:12.171Z,100.00
2023-05-11T23:04:14.997Z,100.00
2023-05-11T23:08:17.051Z,100.00
2023-05-11T23:12:19.468Z,100.00
2023-05-11T23:16:21.649Z,100.00
2023-05-11T23:20:23.913Z,100.00
2023-05-11T23:24:26.826Z,100.00
2023-05-11T23:28:29.952Z,100.00
2023-05-11T23:32:32.277Z,100.00
2023-05-11T23:36:34.389Z,100.00
2023-05-11T23:40:36.421Z,100.00
2023-05-11T23:44:38.422Z,100.00
2023-05-11T23:48:40.469Z,100.00
2023-05-11T23:52:42.522Z,100.00
2023-05-11T23:56:44.607Z,100.00
